createdAt,value
2019-04-05T00:02:04.642Z,43.17
2019-04-05T00:04:51.394Z,44.67
2019-04-05T00:07:38.226Z,46.03
2019-04-05T00:10:26.161Z,43.93
2019-04-05T00:13:14.300Z,57.20
2019-04-05T00:16:01.188Z,54.17
2019-04-05T00:18:51.712Z,45.83
2019-04-05T00:21:38.823Z,45.87
2019-04-05T00:24:26.377Z,55.45
2019-04-05T00:27:13.106Z,46.57
2019-04-05T00:30:01.109Z,44.80
2019-04-05T00:32:48.323Z,43.27
2019-04-05T00:35:35.441Z,45.17
2019-04-05T00:38:25.832Z,55.83
2019-04-05T00:41:13.232Z,46.70
2019-04-05T00:44:00.043Z,44.77
2019-04-05T00:46:46.762Z,44.73
2019-04-05T00:49:33.488Z,44.70
2019-04-05T00:52:20.338Z,44.67
2019-04-05T00:55:07.311Z,41.90
2019-04-05T00:57:54.697Z,43.23
2019-04-05T01:00:41.892Z,45.03
2019-04-05T01:03:29.106Z,43.83
2019-04-05T01:06:15.772Z,43.47
2019-04-05T01:09:02.928Z,57.72
2019-04-05T01:11:50.085Z,49.50
2019-04-05T01:14:36.792Z,47.03
2019-04-05T01:17:25.212Z,44.67
2019-04-05T01:20:11.349Z,44.57
2019-04-05T01:22:58.748Z,43.57
2019-04-05T01:28:51.840Z,43.80
2019-04-05T01:31:39.050Z,45.60
2019-04-05T01:34:25.953Z,48.03
2019-04-05T01:37:13.049Z,47.17
2019-04-05T01:39:59.896Z,47.00
2019-04-05T01:42:47.096Z,46.27
2019-04-05T01:45:34.521Z,59.92
2019-04-05T01:48:21.417Z,58.60
2019-04-05T01:51:11.413Z,49.17
2019-04-05T01:53:59.124Z,47.27
2019-04-05T01:56:46.268Z,46.47
2019-04-05T01:59:33.062Z,46.83
2019-04-05T02:02:19.984Z,48.47
2019-04-05T02:05:07.913Z,46.40
2019-04-05T02:07:54.575Z,46.57
2019-04-05T02:10:41.344Z,47.17
2019-04-05T02:13:28.672Z,45.27
2019-04-05T02:16:15.871Z,48.40
2019-04-05T02:19:02.987Z,46.47
2019-04-05T02:21:50.197Z,47.63
2019-04-05T02:24:36.910Z,45.93
2019-04-05T02:27:23.742Z,60.00
2019-04-05T02:30:11.140Z,59.05
2019-04-05T02:32:58.285Z,50.77
2019-04-05T02:35:45.479Z,60.08
2019-04-05T02:38:34.624Z,57.65
2019-04-05T02:41:21.651Z,52.20
2019-04-05T02:44:08.687Z,50.10
2019-04-05T02:46:55.781Z,46.63
2019-04-05T02:49:42.745Z,48.57
2019-04-05T02:52:29.988Z,59.73
2019-04-05T02:55:17.286Z,49.60
2019-04-05T02:58:03.992Z,48.30
2019-04-05T03:00:51.054Z,47.83
2019-04-05T03:03:38.387Z,47.07
2019-04-05T03:06:25.999Z,45.50
2019-04-05T03:09:12.924Z,48.13
2019-04-05T03:12:00.599Z,44.17
2019-04-05T03:14:47.678Z,45.17
2019-04-05T03:17:34.982Z,45.57
2019-04-05T03:20:21.776Z,45.57
2019-04-05T03:23:08.818Z,46.57
2019-04-05T03:25:56.242Z,46.57
2019-04-05T03:31:49.477Z,48.00
2019-04-05T03:34:36.199Z,46.70
2019-04-05T03:37:23.133Z,49.70
2019-04-05T03:40:10.008Z,50.63
2019-04-05T03:42:56.764Z,45.10
2019-04-05T03:45:43.430Z,46.20
2019-04-05T03:48:30.235Z,48.57
2019-04-05T03:51:17.434Z,49.60
2019-04-05T03:54:04.678Z,48.37
2019-04-05T03:56:51.382Z,48.90
2019-04-05T03:59:38.221Z,48.53
2019-04-05T04:02:25.487Z,49.63
2019-04-05T04:05:12.886Z,50.47
2019-04-05T04:07:59.637Z,60.58
2019-04-05T04:10:47.181Z,53.17
2019-04-05T04:13:34.075Z,49.40
2019-04-05T04:16:20.909Z,48.57
2019-04-05T04:19:08.174Z,49.53
2019-04-05T04:22:13.904Z,50.03
2019-04-05T04:25:01.588Z,47.73
2019-04-05T04:27:48.482Z,46.97
2019-04-05T04:30:35.668Z,47.20
2019-04-05T04:33:22.953Z,49.33
2019-04-05T04:36:12.895Z,46.03
2019-04-05T04:38:56.820Z,49.67
2019-04-05T04:41:43.509Z,46.63
2019-04-05T04:44:31.462Z,58.03
2019-04-05T04:47:26.538Z,48.90
2019-04-05T04:50:05.523Z,46.33
2019-04-05T04:52:53.624Z,46.77
2019-04-05T04:55:40.263Z,56.80
2019-04-05T04:58:27.058Z,49.63
2019-04-05T05:01:13.920Z,47.73
2019-04-05T05:04:01.009Z,57.45
2019-04-05T05:06:48.173Z,48.97
2019-04-05T05:09:35.262Z,45.83
2019-04-05T05:12:22.455Z,46.90
2019-04-05T05:15:09.659Z,47.03
2019-04-05T05:17:59.219Z,46.50
2019-04-05T05:20:46.211Z,45.70
2019-04-05T05:23:33.250Z,46.60
2019-04-05T05:26:20.003Z,49.67
2019-04-05T05:29:07.065Z,45.40
2019-04-05T05:31:54.280Z,58.03
2019-04-05T05:34:41.047Z,48.93
2019-04-05T05:37:29.008Z,59.30
2019-04-05T05:40:16.836Z,57.88
2019-04-05T05:43:03.623Z,50.83
2019-04-05T05:45:50.433Z,58.05
2019-04-05T05:48:37.286Z,48.47
2019-04-05T05:51:24.477Z,45.57
2019-04-05T05:54:11.979Z,46.37
2019-04-05T05:57:00.035Z,44.87
2019-04-05T06:03:00.513Z,44.97
2019-04-05T06:06:03.229Z,44.10
2019-04-05T06:08:37.283Z,44.67
2019-04-05T06:11:24.078Z,43.27
2019-04-05T06:14:11.195Z,44.77
2019-04-05T06:16:58.193Z,44.47
2019-04-05T06:19:45.057Z,44.00
2019-04-05T06:22:31.829Z,44.23
2019-04-05T06:25:18.877Z,43.90
2019-04-05T06:28:06.144Z,42.13
2019-04-05T06:30:52.866Z,44.87
2019-04-05T06:33:40.681Z,45.27
2019-04-05T06:36:27.494Z,42.90
2019-04-05T06:39:14.127Z,42.63
2019-04-05T06:42:00.945Z,43.80
2019-04-05T06:44:47.839Z,44.57
2019-04-05T06:47:34.935Z,42.77
2019-04-05T06:50:22.025Z,43.50
2019-04-05T06:53:08.854Z,43.97
2019-04-05T06:55:56.126Z,42.80
2019-04-05T06:58:46.196Z,43.57
2019-04-05T07:01:44.942Z,42.77
2019-04-05T07:04:32.034Z,44.07
2019-04-05T07:07:18.818Z,54.40
2019-04-05T07:10:06.022Z,45.00
2019-04-05T07:12:53.692Z,44.87
2019-04-05T07:15:40.742Z,51.40
2019-04-05T07:18:35.539Z,45.67
2019-04-05T07:21:17.175Z,43.50
2019-04-05T07:24:02.093Z,43.13
2019-04-05T07:26:49.290Z,45.40
2019-04-05T07:29:38.572Z,42.83
2019-04-05T07:32:25.584Z,52.25
2019-04-05T07:35:13.105Z,51.88
2019-04-05T07:38:00.341Z,46.97
2019-04-05T07:40:46.929Z,43.80
2019-04-05T07:43:34.652Z,42.80
2019-04-05T07:46:21.785Z,43.38
2019-04-05T07:49:08.784Z,44.00
2019-04-05T07:51:56.000Z,42.38
2019-04-05T07:54:42.837Z,50.42
2019-04-05T07:57:29.631Z,44.28
2019-04-05T08:00:38.021Z,42.78
2019-04-05T08:03:24.748Z,42.15
2019-04-05T08:06:12.034Z,41.73
2019-04-05T08:09:02.073Z,43.10
2019-04-05T08:11:46.341Z,41.83
2019-04-05T08:14:34.112Z,49.30
2019-04-05T08:17:21.020Z,43.80
2019-04-05T08:20:07.864Z,44.17
2019-04-05T08:22:55.674Z,42.35
2019-04-05T08:28:49.255Z,40.92
2019-04-05T08:31:36.254Z,41.85
2019-04-05T08:34:23.157Z,40.55
2019-04-05T08:37:10.190Z,42.50
2019-04-05T08:39:58.725Z,40.05
2019-04-05T08:42:45.473Z,41.35
2019-04-05T08:45:32.201Z,42.92
2019-04-05T08:48:19.154Z,40.67
2019-04-05T08:51:05.742Z,40.22
2019-04-05T08:54:07.126Z,41.45
2019-04-05T09:00:01.214Z,43.58
2019-04-05T09:03:02.956Z,42.35
2019-04-05T09:08:55.476Z,43.10
2019-04-05T09:11:42.702Z,41.08
2019-04-05T09:14:30.526Z,43.90
2019-04-05T09:17:17.691Z,41.60
2019-04-05T09:20:07.503Z,41.50
2019-04-05T09:22:54.330Z,42.05
2019-04-05T09:25:41.448Z,43.42
2019-04-05T09:28:28.754Z,42.72
2019-04-05T09:31:15.782Z,42.85
2019-04-05T09:34:02.896Z,42.35
2019-04-05T09:36:49.806Z,41.67
2019-04-05T09:39:36.799Z,41.28
2019-04-05T09:42:23.833Z,39.40
2019-04-05T09:45:10.617Z,39.42
2019-04-05T09:47:57.424Z,41.97
2019-04-05T09:50:58.701Z,43.28
2019-04-05T09:53:45.600Z,42.85
2019-04-05T09:56:33.511Z,41.55
2019-04-05T09:59:22.447Z,40.80
2019-04-05T10:02:09.005Z,42.88
2019-04-05T10:04:55.859Z,40.60
2019-04-05T10:07:54.175Z,47.27
2019-04-05T10:10:30.359Z,44.38
2019-04-05T10:13:17.411Z,41.42
2019-04-05T10:16:04.073Z,41.78
2019-04-05T10:18:51.679Z,42.00
2019-04-05T10:21:38.476Z,42.62
2019-04-05T10:24:27.125Z,41.60
2019-04-05T10:30:20.196Z,39.92
2019-04-05T10:33:08.022Z,40.55
2019-04-05T10:35:55.077Z,40.22
2019-04-05T10:38:41.841Z,39.72
2019-04-05T10:41:29.282Z,38.40
2019-04-05T10:44:16.586Z,37.65
2019-04-05T10:47:03.635Z,39.17
2019-04-05T10:50:02.505Z,39.00
2019-04-05T10:55:45.642Z,36.83
2019-04-05T10:58:43.313Z,33.75
2019-04-05T11:01:32.767Z,34.35
2019-04-05T11:04:19.653Z,36.75
2019-04-05T11:07:06.741Z,36.30
2019-04-05T11:09:53.781Z,35.92
2019-04-05T11:12:40.814Z,37.75
2019-04-05T11:18:34.281Z,37.45
2019-04-05T11:21:21.123Z,41.28
2019-04-05T11:24:08.186Z,39.70
2019-04-05T11:26:55.274Z,37.75
2019-04-05T11:29:42.434Z,39.90
2019-04-05T11:32:29.250Z,38.55
2019-04-05T11:35:16.419Z,39.72
2019-04-05T11:38:03.273Z,37.75
2019-04-05T11:43:58.498Z,38.60
2019-04-05T11:46:44.919Z,37.45
2019-04-05T11:49:32.799Z,39.10
2019-04-05T11:55:26.375Z,38.75
2019-04-05T11:58:13.605Z,39.30
2019-04-05T12:01:15.764Z,38.35
2019-04-05T12:04:02.424Z,37.60
2019-04-05T12:06:51.761Z,40.70
2019-04-05T12:09:39.523Z,39.80
2019-04-05T12:12:26.900Z,39.58
2019-04-05T12:15:13.864Z,39.28
2019-04-05T12:18:04.236Z,38.28
2019-04-05T12:20:58.999Z,38.20
2019-04-05T12:23:35.454Z,39.00
2019-04-05T12:26:22.991Z,39.30
2019-04-05T12:29:10.252Z,39.17
2019-04-05T12:31:56.915Z,38.83
2019-04-05T12:34:43.672Z,39.28
2019-04-05T12:37:30.523Z,41.25
2019-04-05T12:40:17.255Z,38.47
2019-04-05T12:43:04.080Z,38.97
2019-04-05T12:45:51.588Z,41.17
2019-04-05T12:48:38.678Z,39.00
2019-04-05T12:51:25.793Z,39.13
2019-04-05T12:54:13.012Z,38.83
2019-04-05T12:57:00.384Z,38.03
2019-04-05T13:00:01.395Z,40.28
2019-04-05T13:02:50.455Z,38.95
2019-04-05T13:05:35.616Z,39.20
2019-04-05T13:08:23.652Z,36.97
2019-04-05T13:11:10.134Z,37.85
2019-04-05T13:13:57.670Z,36.00
2019-04-05T13:16:44.391Z,37.63
2019-04-05T13:22:41.388Z,37.55
2019-04-05T13:31:41.723Z,35.47
2019-04-05T13:37:34.601Z,34.92
2019-04-05T13:40:21.597Z,34.85
2019-04-05T13:43:08.869Z,35.20
2019-04-05T13:45:55.645Z,37.38
2019-04-05T13:48:42.231Z,35.13
2019-04-05T13:51:31.805Z,37.90
2019-04-05T13:54:15.971Z,37.67
2019-04-05T13:57:03.174Z,36.92
2019-04-05T13:59:49.801Z,35.95
2019-04-05T14:02:36.995Z,35.85
2019-04-05T14:05:24.185Z,35.75
2019-04-05T14:08:25.806Z,35.57
2019-04-05T14:11:13.199Z,36.83
2019-04-05T14:14:00.523Z,36.03
2019-04-05T14:16:47.740Z,33.88
2019-04-05T14:22:40.571Z,33.78
2019-04-05T14:25:30.089Z,34.13
2019-04-05T14:28:14.469Z,33.90
2019-04-05T14:31:02.962Z,37.85
2019-04-05T14:33:50.390Z,37.33
2019-04-05T14:36:37.396Z,37.92
2019-04-05T14:39:24.035Z,36.45
2019-04-05T14:42:14.459Z,37.33
2019-04-05T14:44:59.048Z,38.17
2019-04-05T14:47:46.331Z,37.78
2019-04-05T14:50:33.589Z,38.75
2019-04-05T14:53:20.825Z,37.90
2019-04-05T14:56:07.849Z,36.83
2019-04-05T14:58:54.561Z,38.70
2019-04-05T15:01:41.429Z,35.95
2019-04-05T15:04:28.572Z,36.53
2019-04-05T15:07:15.325Z,35.97
2019-04-05T15:10:03.895Z,38.00
2019-04-05T15:12:49.478Z,37.20
2019-04-05T15:15:36.573Z,35.90
2019-04-05T15:21:29.427Z,34.40
2019-04-05T15:24:17.188Z,34.17
2019-04-05T15:27:03.500Z,34.60
2019-04-05T15:29:50.304Z,34.90
2019-04-05T15:35:43.139Z,41.63
2019-04-05T15:38:31.753Z,42.47
2019-04-05T15:41:16.913Z,42.30
2019-04-05T15:44:05.401Z,41.72
2019-04-05T15:46:50.857Z,42.65
2019-04-05T15:49:37.541Z,42.15
2019-04-05T15:52:28.228Z,41.92
2019-04-05T15:55:11.863Z,41.67
2019-04-05T15:57:59.317Z,42.90
2019-04-05T16:00:46.297Z,41.17
2019-04-05T16:03:33.162Z,38.78
2019-04-05T16:06:19.997Z,38.58
2019-04-05T16:09:07.021Z,38.42
2019-04-05T16:11:54.386Z,38.00
2019-04-05T16:14:41.337Z,38.33
2019-04-05T16:17:28.718Z,36.72
2019-04-05T16:20:15.884Z,38.63
2019-04-05T16:23:02.684Z,37.67
2019-04-05T16:25:49.726Z,37.35
2019-04-05T16:28:36.516Z,36.40
2019-04-05T16:31:23.989Z,35.35
2019-04-05T16:34:11.177Z,36.55
2019-04-05T16:36:58.317Z,39.67
2019-04-05T16:39:45.454Z,40.10
2019-04-05T16:42:32.860Z,44.20
2019-04-05T16:45:20.048Z,58.60
2019-04-05T16:51:13.388Z,58.72
2019-04-05T17:00:13.958Z,34.13
2019-04-05T17:03:01.309Z,39.22
2019-04-05T17:05:48.735Z,36.93
2019-04-05T17:08:35.877Z,37.25
2019-04-05T17:11:25.623Z,35.83
2019-04-05T17:14:12.503Z,36.97
2019-04-05T17:16:59.752Z,37.72
2019-04-05T17:22:58.262Z,38.75
2019-04-05T17:25:40.885Z,37.83
2019-04-05T17:28:27.567Z,38.88
2019-04-05T17:31:14.699Z,38.92
2019-04-05T17:34:01.722Z,37.67
2019-04-05T17:36:48.347Z,37.45
2019-04-05T17:39:37.403Z,35.95
2019-04-05T17:42:26.617Z,38.33
2019-04-05T17:45:13.632Z,37.92
2019-04-05T17:48:00.721Z,38.35
2019-04-05T17:53:54.451Z,39.42
2019-04-05T17:56:42.122Z,39.20
2019-04-05T17:59:30.121Z,39.33
2019-04-05T18:02:31.996Z,38.72
2019-04-05T18:05:18.799Z,37.70
2019-04-05T18:08:06.004Z,39.53
2019-04-05T18:10:53.046Z,37.17
2019-04-05T18:13:41.077Z,36.15
2019-04-05T18:16:28.198Z,44.15
2019-04-05T18:19:15.047Z,39.38
2019-04-05T18:22:01.869Z,44.47
2019-04-05T18:24:48.541Z,38.03
2019-04-05T18:27:35.917Z,36.95
2019-04-05T18:30:22.936Z,36.70
2019-04-05T18:33:10.261Z,35.20
2019-04-05T18:39:08.418Z,36.13
2019-04-05T18:41:55.476Z,35.72
2019-04-05T18:44:42.177Z,42.90
2019-04-05T18:47:29.345Z,36.50
2019-04-05T18:53:36.759Z,42.40
2019-04-05T18:56:10.944Z,35.65
2019-04-05T19:05:10.692Z,33.50
2019-04-05T19:17:23.771Z,32.38
2019-04-05T19:20:04.170Z,34.10
2019-04-05T19:22:51.124Z,34.40
2019-04-05T19:25:38.013Z,33.17
2019-04-05T19:28:25.139Z,35.00
2019-04-05T19:54:01.212Z,43.38
2019-04-05T19:59:48.596Z,37.30
2019-04-05T20:02:35.842Z,34.63
2019-04-05T20:05:22.523Z,35.40
2019-04-05T20:08:09.168Z,35.57
2019-04-05T20:14:16.588Z,34.23
2019-04-05T20:20:10.436Z,33.53
2019-04-05T20:22:57.887Z,32.70
2019-04-05T20:25:44.749Z,33.57
2019-04-05T20:28:46.729Z,33.73
2019-04-05T20:31:33.898Z,33.03
2019-04-05T20:34:21.225Z,33.90
2019-04-05T20:37:22.533Z,33.43
2019-04-05T20:40:10.035Z,34.03
2019-04-05T20:42:56.838Z,46.95
2019-04-05T20:55:01.946Z,32.87
2019-04-05T20:57:49.060Z,34.80
2019-04-05T21:00:36.198Z,44.97
2019-04-05T21:03:23.701Z,37.67
2019-04-05T21:06:10.845Z,45.40
2019-04-05T21:27:34.934Z,37.83
2019-04-05T21:43:00.340Z,37.77
2019-04-05T21:55:06.808Z,35.37
2019-04-05T21:57:53.330Z,35.43
2019-04-05T22:00:49.641Z,35.53
2019-04-05T22:03:51.451Z,35.30
2019-04-05T22:09:45.230Z,33.97
2019-04-05T22:12:32.243Z,38.03
2019-04-05T22:15:19.364Z,34.47
2019-04-05T22:24:22.165Z,48.25
2019-04-05T22:27:09.784Z,39.83
2019-04-05T22:30:11.183Z,38.83
2019-04-05T22:32:59.064Z,33.67
2019-04-05T22:35:46.055Z,36.63
2019-04-05T22:38:34.541Z,46.80
2019-04-05T22:41:24.719Z,38.73
2019-04-05T23:15:27.441Z,34.73
2019-04-05T23:24:40.704Z,35.07
2019-04-05T23:43:12.587Z,34.60
2019-04-05T23:45:59.357Z,36.77
